sensor_id;sensor_type;location;lat;lon;timestamp;P1;durP1;ratioP1;P2;durP2;ratioP2
10565;SDS011;5331;48.148;16.326;2024-02-16T00:00:27;15.83;;;14.10;;
10565;SDS011;5331;48.148;16.326;2024-02-16T00:02:53;16.77;;;14.60;;
10565;SDS011;5331;48.148;16.326;2024-02-16T00:05:20;18.73;;;14.83;;
10565;SDS011;5331;48.148;16.326;2024-02-16T00:07:46;19.00;;;15.53;;
10565;SDS011;5331;48.148;16.326;2024-02-16T00:10:12;17.07;;;14.80;;
10565;SDS011;5331;48.148;16.326;2024-02-16T00:12:38;20.43;;;16.87;;
10565;SDS011;5331;48.148;16.326;2024-02-16T00:15:05;18.33;;;15.40;;
10565;SDS011;5331;48.148;16.326;2024-02-16T00:35:24;16.80;;;13.87;;
10565;SDS011;5331;48.148;16.326;2024-02-16T00:37:50;19.43;;;16.80;;
10565;SDS011;5331;48.148;16.326;2024-02-16T00:40:17;18.60;;;15.70;;
10565;SDS011;5331;48.148;16.326;2024-02-16T00:42:43;18.13;;;15.47;;
10565;SDS011;5331;48.148;16.326;2024-02-16T00:45:09;17.30;;;15.20;;
10565;SDS011;5331;48.148;16.326;2024-02-16T00:47:35;17.63;;;15.73;;
10565;SDS011;5331;48.148;16.326;2024-02-16T00:50:01;17.57;;;15.30;;
10565;SDS011;5331;48.148;16.326;2024-02-16T00:52:31;19.80;;;17.00;;
10565;SDS011;5331;48.148;16.326;2024-02-16T01:08:04;15.10;;;13.43;;
10565;SDS011;5331;48.148;16.326;2024-02-16T01:10:30;15.67;;;13.60;;
10565;SDS011;5331;48.148;16.326;2024-02-16T01:12:56;15.43;;;13.73;;
10565;SDS011;5331;48.148;16.326;2024-02-16T01:15:23;15.83;;;13.43;;
10565;SDS011;5331;48.148;16.326;2024-02-16T01:17:49;18.00;;;14.77;;
10565;SDS011;5331;48.148;16.326;2024-02-16T01:20:15;17.70;;;15.40;;
10565;SDS011;5331;48.148;16.326;2024-02-16T01:22:41;19.73;;;15.80;;
10565;SDS011;5331;48.148;16.326;2024-02-16T01:38:14;18.57;;;14.17;;
10565;SDS011;5331;48.148;16.326;2024-02-16T01:40:40;15.60;;;13.87;;
10565;SDS011;5331;48.148;16.326;2024-02-16T01:43:06;16.40;;;14.13;;
10565;SDS011;5331;48.148;16.326;2024-02-16T01:45:33;16.97;;;14.57;;
10565;SDS011;5331;48.148;16.326;2024-02-16T01:47:59;19.40;;;15.33;;
10565;SDS011;5331;48.148;16.326;2024-02-16T01:50:25;18.80;;;16.30;;
10565;SDS011;5331;48.148;16.326;2024-02-16T01:52:54;17.93;;;15.20;;
10565;SDS011;5331;48.148;16.326;2024-02-16T02:13:13;14.57;;;12.40;;
10565;SDS011;5331;48.148;16.326;2024-02-16T02:15:40;16.60;;;14.23;;
10565;SDS011;5331;48.148;16.326;2024-02-16T02:18:06;17.83;;;15.33;;
10565;SDS011;5331;48.148;16.326;2024-02-16T02:20:32;18.53;;;14.27;;
10565;SDS011;5331;48.148;16.326;2024-02-16T02:22:59;17.80;;;15.67;;
10565;SDS011;5331;48.148;16.326;2024-02-16T02:25:25;18.47;;;15.10;;
10565;SDS011;5331;48.148;16.326;2024-02-16T02:27:53;19.53;;;15.83;;
10565;SDS011;5331;48.148;16.326;2024-02-16T02:30:20;19.10;;;15.60;;
10565;SDS011;5331;48.148;16.326;2024-02-16T02:48:27;16.17;;;13.43;;
10565;SDS011;5331;48.148;16.326;2024-02-16T02:50:54;15.37;;;13.37;;
10565;SDS011;5331;48.148;16.326;2024-02-16T02:53:20;17.13;;;14.30;;
10565;SDS011;5331;48.148;16.326;2024-02-16T02:55:47;20.30;;;15.53;;
10565;SDS011;5331;48.148;16.326;2024-02-16T02:58:13;17.30;;;15.17;;
10565;SDS011;5331;48.148;16.326;2024-02-16T03:00:39;17.30;;;15.33;;
10565;SDS011;5331;48.148;16.326;2024-02-16T03:03:06;17.27;;;14.13;;
10565;SDS011;5331;48.148;16.326;2024-02-16T03:18:33;17.73;;;14.87;;
10565;SDS011;5331;48.148;16.326;2024-02-16T03:21:00;17.20;;;13.90;;
10565;SDS011;5331;48.148;16.326;2024-02-16T03:23:26;17.13;;;14.77;;
10565;SDS011;5331;48.148;16.326;2024-02-16T03:25:53;17.93;;;15.20;;
10565;SDS011;5331;48.148;16.326;2024-02-16T03:28:19;19.37;;;16.07;;
10565;SDS011;5331;48.148;16.326;2024-02-16T03:30:46;18.93;;;16.10;;
10565;SDS011;5331;48.148;16.326;2024-02-16T03:33:12;19.23;;;15.80;;
10565;SDS011;5331;48.148;16.326;2024-02-16T03:53:02;19.30;;;15.47;;
10565;SDS011;5331;48.148;16.326;2024-02-16T03:55:29;17.93;;;15.97;;
10565;SDS011;5331;48.148;16.326;2024-02-16T03:57:58;20.80;;;16.87;;
10565;SDS011;5331;48.148;16.326;2024-02-16T04:00:24;18.17;;;15.17;;
10565;SDS011;5331;48.148;16.326;2024-02-16T04:02:50;19.53;;;16.93;;
10565;SDS011;5331;48.148;16.326;2024-02-16T04:05:16;18.40;;;16.13;;
10565;SDS011;5331;48.148;16.326;2024-02-16T04:07:42;19.47;;;16.63;;
10565;SDS011;5331;48.148;16.326;2024-02-16T04:10:09;24.97;;;19.47;;
10565;SDS011;5331;48.148;16.326;2024-02-16T04:30:23;20.23;;;18.03;;
10565;SDS011;5331;48.148;16.326;2024-02-16T04:32:49;20.47;;;17.40;;
10565;SDS011;5331;48.148;16.326;2024-02-16T04:35:15;22.73;;;18.00;;
10565;SDS011;5331;48.148;16.326;2024-02-16T04:37:41;20.43;;;17.33;;
10565;SDS011;5331;48.148;16.326;2024-02-16T04:40:08;19.70;;;17.10;;
10565;SDS011;5331;48.148;16.326;2024-02-16T04:42:37;22.30;;;18.13;;
10565;SDS011;5331;48.148;16.326;2024-02-16T04:45:03;22.23;;;17.60;;
10565;SDS011;5331;48.148;16.326;2024-02-16T05:00:44;18.50;;;16.03;;
10565;SDS011;5331;48.148;16.326;2024-02-16T05:03:11;18.13;;;15.63;;
10565;SDS011;5331;48.148;16.326;2024-02-16T05:05:37;21.57;;;16.57;;
10565;SDS011;5331;48.148;16.326;2024-02-16T05:08:04;20.47;;;17.07;;
10565;SDS011;5331;48.148;16.326;2024-02-16T05:10:31;17.87;;;15.97;;
10565;SDS011;5331;48.148;16.326;2024-02-16T05:12:57;19.50;;;16.10;;
10565;SDS011;5331;48.148;16.326;2024-02-16T05:15:23;17.63;;;15.77;;
10565;SDS011;5331;48.148;16.326;2024-02-16T05:35:36;19.83;;;17.67;;
10565;SDS011;5331;48.148;16.326;2024-02-16T05:38:05;20.40;;;16.27;;
10565;SDS011;5331;48.148;16.326;2024-02-16T05:40:35;20.07;;;15.80;;
10565;SDS011;5331;48.148;16.326;2024-02-16T05:43:18;18.13;;;15.90;;
10565;SDS011;5331;48.148;16.326;2024-02-16T05:45:44;18.10;;;15.43;;
10565;SDS011;5331;48.148;16.326;2024-02-16T05:48:11;17.40;;;14.93;;
10565;SDS011;5331;48.148;16.326;2024-02-16T05:50:38;19.67;;;16.80;;
10565;SDS011;5331;48.148;16.326;2024-02-16T06:10:57;17.77;;;13.90;;
10565;SDS011;5331;48.148;16.326;2024-02-16T06:13:23;18.53;;;14.57;;
10565;SDS011;5331;48.148;16.326;2024-02-16T06:15:49;18.33;;;15.20;;
10565;SDS011;5331;48.148;16.326;2024-02-16T06:18:16;16.87;;;14.67;;
10565;SDS011;5331;48.148;16.326;2024-02-16T06:20:42;17.47;;;14.43;;
10565;SDS011;5331;48.148;16.326;2024-02-16T06:23:08;16.83;;;14.63;;
10565;SDS011;5331;48.148;16.326;2024-02-16T06:25:34;18.97;;;15.23;;
10565;SDS011;5331;48.148;16.326;2024-02-16T06:45:53;20.37;;;15.17;;
10565;SDS011;5331;48.148;16.326;2024-02-16T06:48:21;18.17;;;14.07;;
10565;SDS011;5331;48.148;16.326;2024-02-16T06:50:47;21.03;;;14.70;;
10565;SDS011;5331;48.148;16.326;2024-02-16T06:53:14;17.03;;;13.93;;
10565;SDS011;5331;48.148;16.326;2024-02-16T06:55:40;26.77;;;21.40;;
10565;SDS011;5331;48.148;16.326;2024-02-16T06:58:06;17.97;;;14.73;;
10565;SDS011;5331;48.148;16.326;2024-02-16T07:00:32;19.73;;;15.33;;
10565;SDS011;5331;48.148;16.326;2024-02-16T07:20:45;10.23;;;9.23;;
10565;SDS011;5331;48.148;16.326;2024-02-16T07:23:12;12.87;;;10.00;;
10565;SDS011;5331;48.148;16.326;2024-02-16T07:25:40;14.93;;;11.67;;
10565;SDS011;5331;48.148;16.326;2024-02-16T07:28:06;13.67;;;11.60;;
10565;SDS011;5331;48.148;16.326;2024-02-16T07:30:33;10.73;;;8.80;;
10565;SDS011;5331;48.148;16.326;2024-02-16T07:33:00;12.03;;;10.50;;
10565;SDS011;5331;48.148;16.326;2024-02-16T07:35:26;11.10;;;8.80;;
10565;SDS011;5331;48.148;16.326;2024-02-16T07:37:53;11.87;;;8.73;;
10565;SDS011;5331;48.148;16.326;2024-02-16T07:53:20;9.85;;;8.35;;
10565;SDS011;5331;48.148;16.326;2024-02-16T07:55:46;10.05;;;8.20;;
10565;SDS011;5331;48.148;16.326;2024-02-16T07:58:12;9.23;;;8.15;;
10565;SDS011;5331;48.148;16.326;2024-02-16T08:00:38;9.25;;;7.72;;
10565;SDS011;5331;48.148;16.326;2024-02-16T08:03:04;10.18;;;7.93;;
10565;SDS011;5331;48.148;16.326;2024-02-16T08:05:30;10.20;;;8.10;;
10565;SDS011;5331;48.148;16.326;2024-02-16T08:07:57;10.27;;;7.97;;
10565;SDS011;5331;48.148;16.326;2024-02-16T08:23:25;9.43;;;7.97;;
10565;SDS011;5331;48.148;16.326;2024-02-16T08:25:51;9.02;;;7.97;;
10565;SDS011;5331;48.148;16.326;2024-02-16T08:28:18;10.95;;;8.35;;
10565;SDS011;5331;48.148;16.326;2024-02-16T08:30:44;8.98;;;7.55;;
10565;SDS011;5331;48.148;16.326;2024-02-16T08:33:10;7.50;;;6.78;;
10565;SDS011;5331;48.148;16.326;2024-02-16T08:35:37;8.73;;;6.82;;
10565;SDS011;5331;48.148;16.326;2024-02-16T08:38:04;7.47;;;6.78;;
10565;SDS011;5331;48.148;16.326;2024-02-16T08:40:31;7.53;;;6.68;;
10565;SDS011;5331;48.148;16.326;2024-02-16T08:58:24;9.25;;;7.15;;
10565;SDS011;5331;48.148;16.326;2024-02-16T09:00:50;7.47;;;6.75;;
10565;SDS011;5331;48.148;16.326;2024-02-16T09:03:16;6.78;;;5.88;;
10565;SDS011;5331;48.148;16.326;2024-02-16T09:05:42;6.95;;;6.15;;
10565;SDS011;5331;48.148;16.326;2024-02-16T09:08:09;7.13;;;6.03;;
10565;SDS011;5331;48.148;16.326;2024-02-16T09:10:35;7.88;;;7.07;;
10565;SDS011;5331;48.148;16.326;2024-02-16T09:13:02;5.53;;;5.03;;
10565;SDS011;5331;48.148;16.326;2024-02-16T09:28:55;4.93;;;4.43;;
10565;SDS011;5331;48.148;16.326;2024-02-16T09:34:51;5.05;;;4.53;;
10565;SDS011;5331;48.148;16.326;2024-02-16T09:37:35;6.70;;;4.32;;
10565;SDS011;5331;48.148;16.326;2024-02-16T09:40:11;4.88;;;4.32;;
10565;SDS011;5331;48.148;16.326;2024-02-16T09:42:47;5.07;;;4.57;;
10565;SDS011;5331;48.148;16.326;2024-02-16T09:45:51;5.43;;;4.65;;
10565;SDS011;5331;48.148;16.326;2024-02-16T09:48:30;4.15;;;3.85;;
10565;SDS011;5331;48.148;16.326;2024-02-16T09:51:23;4.07;;;3.53;;
10565;SDS011;5331;48.148;16.326;2024-02-16T09:54:13;3.95;;;3.55;;
10565;SDS011;5331;48.148;16.326;2024-02-16T09:57:21;5.28;;;3.90;;
10565;SDS011;5331;48.148;16.326;2024-02-16T10:18:11;4.22;;;3.83;;
10565;SDS011;5331;48.148;16.326;2024-02-16T10:20:58;6.68;;;5.38;;
10565;SDS011;5331;48.148;16.326;2024-02-16T10:26:37;5.10;;;4.15;;
10565;SDS011;5331;48.148;16.326;2024-02-16T10:29:19;4.10;;;3.65;;
10565;SDS011;5331;48.148;16.326;2024-02-16T10:31:49;4.05;;;3.65;;
10565;SDS011;5331;48.148;16.326;2024-02-16T10:34:16;4.07;;;3.65;;
10565;SDS011;5331;48.148;16.326;2024-02-16T10:50:56;3.70;;;3.40;;
10565;SDS011;5331;48.148;16.326;2024-02-16T10:53:23;3.72;;;3.40;;
10565;SDS011;5331;48.148;16.326;2024-02-16T10:55:51;3.10;;;2.88;;
10565;SDS011;5331;48.148;16.326;2024-02-16T10:58:18;4.00;;;3.60;;
10565;SDS011;5331;48.148;16.326;2024-02-16T11:00:48;4.25;;;3.45;;
10565;SDS011;5331;48.148;16.326;2024-02-16T11:03:17;3.35;;;3.05;;
10565;SDS011;5331;48.148;16.326;2024-02-16T11:05:48;3.55;;;3.25;;
10565;SDS011;5331;48.148;16.326;2024-02-16T11:26:00;3.50;;;3.17;;
10565;SDS011;5331;48.148;16.326;2024-02-16T11:28:27;3.25;;;2.78;;
10565;SDS011;5331;48.148;16.326;2024-02-16T11:30:54;3.03;;;2.70;;
10565;SDS011;5331;48.148;16.326;2024-02-16T11:33:20;3.65;;;2.90;;
10565;SDS011;5331;48.148;16.326;2024-02-16T11:35:52;2.70;;;2.50;;
10565;SDS011;5331;48.148;16.326;2024-02-16T11:38:19;3.00;;;2.60;;
10565;SDS011;5331;48.148;16.326;2024-02-16T11:40:52;2.75;;;2.55;;
10565;SDS011;5331;48.148;16.326;2024-02-16T11:58:55;3.15;;;2.58;;
10565;SDS011;5331;48.148;16.326;2024-02-16T12:01:22;2.92;;;2.65;;
10565;SDS011;5331;48.148;16.326;2024-02-16T12:03:48;3.08;;;2.60;;
10565;SDS011;5331;48.148;16.326;2024-02-16T12:06:19;2.63;;;2.42;;
10565;SDS011;5331;48.148;16.326;2024-02-16T12:08:46;2.95;;;2.53;;
10565;SDS011;5331;48.148;16.326;2024-02-16T12:11:12;2.75;;;2.55;;
10565;SDS011;5331;48.148;16.326;2024-02-16T12:13:39;2.35;;;2.15;;
10565;SDS011;5331;48.148;16.326;2024-02-16T12:29:07;2.45;;;2.25;;
10565;SDS011;5331;48.148;16.326;2024-02-16T12:31:37;2.47;;;2.28;;
10565;SDS011;5331;48.148;16.326;2024-02-16T12:34:03;2.47;;;2.35;;
10565;SDS011;5331;48.148;16.326;2024-02-16T12:36:31;2.17;;;2.00;;
10565;SDS011;5331;48.148;16.326;2024-02-16T12:38:58;2.47;;;2.38;;
10565;SDS011;5331;48.148;16.326;2024-02-16T12:41:24;2.55;;;2.25;;
10565;SDS011;5331;48.148;16.326;2024-02-16T12:43:50;3.50;;;2.63;;
10565;SDS011;5331;48.148;16.326;2024-02-16T13:00:01;2.80;;;2.53;;
10565;SDS011;5331;48.148;16.326;2024-02-16T13:02:27;2.40;;;2.20;;
10565;SDS011;5331;48.148;16.326;2024-02-16T13:04:54;2.65;;;2.45;;
10565;SDS011;5331;48.148;16.326;2024-02-16T13:07:20;2.90;;;2.70;;
10565;SDS011;5331;48.148;16.326;2024-02-16T13:09:46;2.95;;;2.60;;
10565;SDS011;5331;48.148;16.326;2024-02-16T13:12:15;2.40;;;2.30;;
10565;SDS011;5331;48.148;16.326;2024-02-16T13:14:42;2.35;;;2.15;;
10565;SDS011;5331;48.148;16.326;2024-02-16T13:33:08;3.22;;;2.92;;
10565;SDS011;5331;48.148;16.326;2024-02-16T13:35:34;3.83;;;3.50;;
10565;SDS011;5331;48.148;16.326;2024-02-16T13:38:02;3.60;;;3.30;;
10565;SDS011;5331;48.148;16.326;2024-02-16T13:40:28;3.20;;;2.92;;
10565;SDS011;5331;48.148;16.326;2024-02-16T13:42:54;3.63;;;3.03;;
10565;SDS011;5331;48.148;16.326;2024-02-16T13:45:26;4.00;;;3.10;;
10565;SDS011;5331;48.148;16.326;2024-02-16T13:47:52;4.22;;;3.30;;
10565;SDS011;5331;48.148;16.326;2024-02-16T14:03:36;3.30;;;3.10;;
10565;SDS011;5331;48.148;16.326;2024-02-16T14:06:02;2.92;;;2.70;;
10565;SDS011;5331;48.148;16.326;2024-02-16T14:08:29;3.50;;;3.20;;
10565;SDS011;5331;48.148;16.326;2024-02-16T14:10:56;3.20;;;2.90;;
10565;SDS011;5331;48.148;16.326;2024-02-16T14:13:22;3.55;;;3.25;;
10565;SDS011;5331;48.148;16.326;2024-02-16T14:15:49;2.95;;;2.75;;
10565;SDS011;5331;48.148;16.326;2024-02-16T14:18:16;3.15;;;2.85;;
10565;SDS011;5331;48.148;16.326;2024-02-16T14:33:43;3.45;;;2.72;;
10565;SDS011;5331;48.148;16.326;2024-02-16T14:36:09;2.85;;;2.55;;
10565;SDS011;5331;48.148;16.326;2024-02-16T14:38:36;2.72;;;2.50;;
10565;SDS011;5331;48.148;16.326;2024-02-16T14:41:02;3.15;;;2.80;;
10565;SDS011;5331;48.148;16.326;2024-02-16T14:43:30;3.40;;;2.72;;
10565;SDS011;5331;48.148;16.326;2024-02-16T14:45:56;2.70;;;2.50;;
10565;SDS011;5331;48.148;16.326;2024-02-16T14:48:23;3.80;;;2.50;;
10565;SDS011;5331;48.148;16.326;2024-02-16T15:06:16;3.03;;;2.72;;
10565;SDS011;5331;48.148;16.326;2024-02-16T15:08:42;3.38;;;2.60;;
10565;SDS011;5331;48.148;16.326;2024-02-16T15:11:08;2.85;;;2.65;;
10565;SDS011;5331;48.148;16.326;2024-02-16T15:13:35;3.63;;;2.60;;
10565;SDS011;5331;48.148;16.326;2024-02-16T15:16:02;3.10;;;2.50;;
10565;SDS011;5331;48.148;16.326;2024-02-16T15:18:29;2.75;;;2.55;;
10565;SDS011;5331;48.148;16.326;2024-02-16T15:20:55;3.00;;;2.75;;
10565;SDS011;5331;48.148;16.326;2024-02-16T15:41:04;3.47;;;3.17;;
10565;SDS011;5331;48.148;16.326;2024-02-16T15:43:30;4.18;;;3.28;;
10565;SDS011;5331;48.148;16.326;2024-02-16T15:45:56;5.70;;;3.50;;
10565;SDS011;5331;48.148;16.326;2024-02-16T15:48:22;3.95;;;3.47;;
10565;SDS011;5331;48.148;16.326;2024-02-16T15:50:49;4.05;;;3.75;;
10565;SDS011;5331;48.148;16.326;2024-02-16T15:53:16;4.40;;;4.00;;
10565;SDS011;5331;48.148;16.326;2024-02-16T15:55:42;5.13;;;3.78;;
10565;SDS011;5331;48.148;16.326;2024-02-16T15:58:09;3.83;;;3.42;;
10565;SDS011;5331;48.148;16.326;2024-02-16T16:16:08;5.75;;;4.40;;
10565;SDS011;5331;48.148;16.326;2024-02-16T16:18:34;4.47;;;4.07;;
10565;SDS011;5331;48.148;16.326;2024-02-16T16:21:00;4.50;;;4.10;;
10565;SDS011;5331;48.148;16.326;2024-02-16T16:23:28;4.80;;;4.30;;
10565;SDS011;5331;48.148;16.326;2024-02-16T16:25:54;4.45;;;4.07;;
10565;SDS011;5331;48.148;16.326;2024-02-16T16:28:21;4.57;;;4.18;;
10565;SDS011;5331;48.148;16.326;2024-02-16T16:30:47;4.82;;;4.32;;
10565;SDS011;5331;48.148;16.326;2024-02-16T16:48:40;7.25;;;5.15;;
10565;SDS011;5331;48.148;16.326;2024-02-16T16:51:07;5.97;;;5.43;;
10565;SDS011;5331;48.148;16.326;2024-02-16T16:53:33;5.03;;;4.57;;
10565;SDS011;5331;48.148;16.326;2024-02-16T16:55:59;6.07;;;5.05;;
10565;SDS011;5331;48.148;16.326;2024-02-16T16:58:25;5.85;;;5.20;;
10565;SDS011;5331;48.148;16.326;2024-02-16T17:00:52;5.63;;;5.10;;
10565;SDS011;5331;48.148;16.326;2024-02-16T17:03:18;5.35;;;4.85;;
10565;SDS011;5331;48.148;16.326;2024-02-16T17:05:45;6.35;;;5.50;;
10565;SDS011;5331;48.148;16.326;2024-02-16T17:23:39;6.50;;;5.70;;
10565;SDS011;5331;48.148;16.326;2024-02-16T17:26:05;7.55;;;6.03;;
10565;SDS011;5331;48.148;16.326;2024-02-16T17:28:32;6.45;;;5.85;;
10565;SDS011;5331;48.148;16.326;2024-02-16T17:31:02;7.75;;;6.80;;
10565;SDS011;5331;48.148;16.326;2024-02-16T17:33:28;9.95;;;6.60;;
10565;SDS011;5331;48.148;16.326;2024-02-16T17:35:55;9.07;;;6.10;;
10565;SDS011;5331;48.148;16.326;2024-02-16T17:38:22;7.03;;;6.32;;
10565;SDS011;5331;48.148;16.326;2024-02-16T17:58:41;8.65;;;7.65;;
10565;SDS011;5331;48.148;16.326;2024-02-16T18:01:07;10.02;;;7.85;;
10565;SDS011;5331;48.148;16.326;2024-02-16T18:03:33;9.32;;;7.50;;
10565;SDS011;5331;48.148;16.326;2024-02-16T18:05:59;8.18;;;6.95;;
10565;SDS011;5331;48.148;16.326;2024-02-16T18:08:25;8.88;;;7.97;;
10565;SDS011;5331;48.148;16.326;2024-02-16T18:10:51;9.23;;;8.32;;
10565;SDS011;5331;48.148;16.326;2024-02-16T18:13:17;9.82;;;8.20;;
10565;SDS011;5331;48.148;16.326;2024-02-16T18:28:46;9.40;;;8.30;;
10565;SDS011;5331;48.148;16.326;2024-02-16T18:31:13;8.77;;;6.70;;
10565;SDS011;5331;48.148;16.326;2024-02-16T18:33:39;8.55;;;7.43;;
10565;SDS011;5331;48.148;16.326;2024-02-16T18:36:05;9.68;;;7.57;;
10565;SDS011;5331;48.148;16.326;2024-02-16T18:38:32;9.07;;;7.85;;
10565;SDS011;5331;48.148;16.326;2024-02-16T18:41:00;8.77;;;7.88;;
10565;SDS011;5331;48.148;16.326;2024-02-16T18:43:26;8.43;;;6.97;;
10565;SDS011;5331;48.148;16.326;2024-02-16T18:45:53;8.38;;;7.38;;
10565;SDS011;5331;48.148;16.326;2024-02-16T19:06:01;9.52;;;7.75;;
10565;SDS011;5331;48.148;16.326;2024-02-16T19:08:28;9.23;;;7.35;;
10565;SDS011;5331;48.148;16.326;2024-02-16T19:10:54;9.50;;;8.30;;
10565;SDS011;5331;48.148;16.326;2024-02-16T19:13:23;9.45;;;8.45;;
10565;SDS011;5331;48.148;16.326;2024-02-16T19:15:49;9.60;;;8.20;;
10565;SDS011;5331;48.148;16.326;2024-02-16T19:18:16;8.85;;;7.95;;
10565;SDS011;5331;48.148;16.326;2024-02-16T19:20:43;8.60;;;7.80;;
10565;SDS011;5331;48.148;16.326;2024-02-16T19:40:55;9.07;;;7.97;;
10565;SDS011;5331;48.148;16.326;2024-02-16T19:43:21;9.45;;;8.15;;
10565;SDS011;5331;48.148;16.326;2024-02-16T19:45:48;8.15;;;7.35;;
10565;SDS011;5331;48.148;16.326;2024-02-16T19:48:14;10.15;;;8.10;;
10565;SDS011;5331;48.148;16.326;2024-02-16T19:50:41;9.60;;;8.70;;
10565;SDS011;5331;48.148;16.326;2024-02-16T19:53:07;10.63;;;8.77;;
10565;SDS011;5331;48.148;16.326;2024-02-16T19:55:35;10.35;;;8.90;;
10565;SDS011;5331;48.148;16.326;2024-02-16T19:58:02;10.82;;;9.70;;
10565;SDS011;5331;48.148;16.326;2024-02-16T20:18:02;10.20;;;9.18;;
10565;SDS011;5331;48.148;16.326;2024-02-16T20:20:29;10.73;;;9.10;;
10565;SDS011;5331;48.148;16.326;2024-02-16T20:22:55;10.00;;;9.00;;
10565;SDS011;5331;48.148;16.326;2024-02-16T20:25:22;9.45;;;8.35;;
10565;SDS011;5331;48.148;16.326;2024-02-16T20:27:48;8.35;;;7.55;;
10565;SDS011;5331;48.148;16.326;2024-02-16T20:30:14;9.05;;;7.70;;
10565;SDS011;5331;48.148;16.326;2024-02-16T20:32:41;12.32;;;10.35;;
10565;SDS011;5331;48.148;16.326;2024-02-16T20:50:36;19.40;;;13.07;;
10565;SDS011;5331;48.148;16.326;2024-02-16T20:53:02;17.35;;;12.65;;
10565;SDS011;5331;48.148;16.326;2024-02-16T20:55:29;16.15;;;11.43;;
10565;SDS011;5331;48.148;16.326;2024-02-16T20:57:55;15.35;;;12.00;;
10565;SDS011;5331;48.148;16.326;2024-02-16T21:00:22;16.35;;;11.48;;
10565;SDS011;5331;48.148;16.326;2024-02-16T21:02:49;12.82;;;10.00;;
10565;SDS011;5331;48.148;16.326;2024-02-16T21:05:18;11.43;;;9.75;;
10565;SDS011;5331;48.148;16.326;2024-02-16T21:25:01;12.05;;;9.77;;
10565;SDS011;5331;48.148;16.326;2024-02-16T21:27:29;13.95;;;9.85;;
10565;SDS011;5331;48.148;16.326;2024-02-16T21:29:55;11.52;;;10.02;;
10565;SDS011;5331;48.148;16.326;2024-02-16T21:32:22;12.18;;;10.00;;
10565;SDS011;5331;48.148;16.326;2024-02-16T21:34:48;14.18;;;10.90;;
10565;SDS011;5331;48.148;16.326;2024-02-16T21:37:16;11.25;;;10.13;;
10565;SDS011;5331;48.148;16.326;2024-02-16T21:39:42;12.57;;;10.65;;
10565;SDS011;5331;48.148;16.326;2024-02-16T21:55:20;14.18;;;11.82;;
10565;SDS011;5331;48.148;16.326;2024-02-16T21:57:46;12.38;;;10.10;;
10565;SDS011;5331;48.148;16.326;2024-02-16T22:00:12;11.13;;;10.02;;
10565;SDS011;5331;48.148;16.326;2024-02-16T22:02:39;16.30;;;11.73;;
10565;SDS011;5331;48.148;16.326;2024-02-16T22:05:05;12.27;;;10.63;;
10565;SDS011;5331;48.148;16.326;2024-02-16T22:07:32;13.02;;;10.38;;
10565;SDS011;5331;48.148;16.326;2024-02-16T22:09:58;11.27;;;10.13;;
10565;SDS011;5331;48.148;16.326;2024-02-16T22:12:25;11.88;;;10.60;;
10565;SDS011;5331;48.148;16.326;2024-02-16T22:32:44;11.38;;;10.18;;
10565;SDS011;5331;48.148;16.326;2024-02-16T22:35:10;12.32;;;10.20;;
10565;SDS011;5331;48.148;16.326;2024-02-16T22:37:36;12.95;;;10.43;;
10565;SDS011;5331;48.148;16.326;2024-02-16T22:40:03;14.63;;;11.07;;
10565;SDS011;5331;48.148;16.326;2024-02-16T22:42:30;13.90;;;11.75;;
10565;SDS011;5331;48.148;16.326;2024-02-16T22:44:56;14.73;;;10.80;;
10565;SDS011;5331;48.148;16.326;2024-02-16T22:47:22;11.57;;;10.38;;
10565;SDS011;5331;48.148;16.326;2024-02-16T22:49:49;12.38;;;10.50;;
10565;SDS011;5331;48.148;16.326;2024-02-16T23:07:52;14.15;;;10.98;;
10565;SDS011;5331;48.148;16.326;2024-02-16T23:10:19;14.35;;;11.02;;
10565;SDS011;5331;48.148;16.326;2024-02-16T23:12:46;14.35;;;11.30;;
10565;SDS011;5331;48.148;16.326;2024-02-16T23:15:13;12.73;;;10.48;;
10565;SDS011;5331;48.148;16.326;2024-02-16T23:17:40;12.70;;;10.23;;
10565;SDS011;5331;48.148;16.326;2024-02-16T23:20:07;12.75;;;10.23;;
10565;SDS011;5331;48.148;16.326;2024-02-16T23:22:34;12.87;;;10.23;;
10565;SDS011;5331;48.148;16.326;2024-02-16T23:42:52;10.40;;;9.30;;
10565;SDS011;5331;48.148;16.326;2024-02-16T23:45:19;11.15;;;9.77;;
10565;SDS011;5331;48.148;16.326;2024-02-16T23:47:46;12.47;;;10.07;;
10565;SDS011;5331;48.148;16.326;2024-02-16T23:50:13;14.20;;;10.95;;
10565;SDS011;5331;48.148;16.326;2024-02-16T23:52:40;11.20;;;9.97;;
10565;SDS011;5331;48.148;16.326;2024-02-16T23:55:07;12.47;;;10.60;;
10565;SDS011;5331;48.148;16.326;2024-02-16T23:57:34;11.20;;;10.10;;
